createdAt,value
2023-02-09T19:07:09.745Z,3.30
2023-02-09T19:09:40.711Z,2.63
2023-02-09T19:12:20.862Z,5.97
2023-02-09T19:14:52.573Z,5.05
2023-02-09T19:17:24.551Z,4.25
2023-02-09T19:19:57.032Z,5.57
2023-02-09T19:22:30.326Z,7.10
2023-02-09T19:25:04.848Z,6.10
2023-02-09T19:28:01.245Z,6.68
2023-02-09T19:30:32.956Z,6.00
2023-02-09T19:33:17.158Z,5.32
2023-02-09T19:35:49.673Z,13.00
2023-02-09T19:38:24.276Z,5.10
2023-02-09T19:41:09.813Z,7.10
2023-02-09T19:43:51.003Z,5.97
2023-02-09T19:46:23.560Z,8.45
2023-02-09T19:48:55.483Z,7.72
2023-02-09T19:51:41.456Z,5.18
2023-02-09T19:54:15.286Z,6.72
2023-02-09T19:59:40.188Z,6.97
2023-02-09T20:02:14.724Z,6.72
2023-02-09T20:04:46.182Z,12.18
2023-02-09T20:07:17.818Z,8.98
2023-02-09T20:09:53.036Z,8.20
2023-02-09T20:12:23.842Z,11.35
2023-02-09T20:14:58.592Z,9.02
2023-02-09T20:17:30.308Z,10.57
2023-02-09T20:20:00.890Z,9.13
2023-02-09T20:22:34.983Z,8.55
2023-02-09T20:25:10.136Z,9.93
2023-02-09T20:27:41.115Z,11.23
2023-02-09T20:30:13.137Z,7.47
2023-02-09T20:32:46.119Z,8.07
2023-02-09T20:35:25.600Z,10.25
2023-02-09T20:37:59.690Z,12.85
2023-02-09T20:40:36.553Z,9.75
2023-02-09T20:43:19.749Z,8.48
2023-02-09T20:46:03.305Z,9.75
2023-02-09T20:48:36.027Z,7.78
2023-02-09T20:51:06.930Z,6.80
2023-02-09T20:53:40.039Z,7.82
2023-02-09T20:56:16.362Z,8.82
2023-02-09T20:58:49.199Z,8.60
2023-02-09T21:01:23.380Z,10.05
2023-02-09T21:03:54.576Z,9.85
2023-02-09T21:06:25.531Z,7.82
2023-02-09T21:08:57.855Z,8.15
2023-02-09T21:11:31.567Z,8.68
2023-02-09T21:14:05.076Z,7.25
2023-02-09T21:16:47.831Z,9.33
2023-02-09T21:19:18.645Z,10.73
2023-02-09T21:21:49.281Z,10.77
2023-02-09T21:24:21.276Z,9.50
2023-02-09T21:27:04.158Z,7.65
2023-02-09T21:29:42.748Z,6.50
2023-02-09T21:32:14.746Z,6.93
2023-02-09T21:34:49.286Z,8.80
2023-02-09T21:37:19.886Z,7.82
2023-02-09T21:40:02.604Z,6.13
2023-02-09T21:42:47.627Z,6.32
2023-02-09T21:45:18.611Z,12.25
2023-02-09T21:47:49.634Z,8.32
2023-02-09T21:50:21.176Z,9.25
2023-02-09T21:52:51.949Z,7.75
2023-02-09T21:55:22.774Z,9.27
2023-02-09T21:57:55.753Z,10.00
2023-02-09T22:00:26.800Z,8.50
2023-02-09T22:02:59.570Z,8.82
2023-02-09T22:05:30.500Z,6.60
2023-02-09T22:08:08.517Z,12.65
2023-02-09T22:10:40.634Z,9.82
2023-02-09T22:13:13.749Z,12.05
2023-02-09T22:15:47.797Z,11.00
2023-02-09T22:18:18.198Z,14.93
2023-02-09T22:20:49.330Z,9.68
2023-02-09T22:23:20.456Z,10.02
2023-02-09T22:25:50.887Z,10.65
2023-02-09T22:28:24.075Z,13.63
2023-02-09T22:30:54.604Z,12.45
2023-02-09T22:33:26.393Z,12.00
2023-02-09T22:35:57.306Z,8.70
2023-02-09T22:38:32.221Z,15.27
2023-02-09T22:41:08.070Z,17.48
2023-02-09T22:43:41.325Z,10.33
2023-02-09T22:46:11.952Z,11.40
2023-02-09T22:48:42.414Z,10.13
2023-02-09T22:51:21.185Z,15.50
2023-02-09T22:53:51.671Z,18.60
2023-02-09T22:56:26.379Z,14.77
2023-02-09T22:59:00.929Z,16.25
2023-02-09T23:01:32.456Z,13.65
2023-02-09T23:04:03.596Z,10.95
2023-02-09T23:06:36.400Z,22.58
2023-02-09T23:09:08.958Z,14.05
2023-02-09T23:11:39.861Z,16.48
2023-02-09T23:14:13.660Z,13.57
2023-02-09T23:16:45.716Z,14.63
2023-02-09T23:19:17.928Z,11.50
2023-02-09T23:21:50.612Z,12.30
2023-02-09T23:24:24.482Z,22.55
2023-02-09T23:26:55.005Z,16.23
2023-02-09T23:29:28.262Z,22.15
2023-02-09T23:31:58.991Z,18.33
2023-02-09T23:34:30.041Z,15.02
2023-02-09T23:37:18.769Z,19.55
2023-02-09T23:39:49.447Z,14.25
2023-02-09T23:42:19.882Z,21.90
2023-02-09T23:44:52.951Z,19.30
2023-02-09T23:47:23.733Z,23.17
2023-02-09T23:49:54.280Z,15.23
2023-02-09T23:52:24.712Z,18.23
2023-02-09T23:54:55.157Z,11.82
2023-02-09T23:57:26.160Z,13.85
